Time;durP1;ratioP1;P1;durP2;ratioP2;P2;SDS_P1;SDS_P2;PMS_P1;PMS_P2;Temp;Humidity;BMP_temperature;BMP_pressure;BME280_temperature;BME280_humidity;BME280_pressure;Samples;Min_cycle;Max_cycle;Signal;HPM_P1;HPM_P2
2023/10/14 00:03:27;;;;;;;15.95;7.90;;;19.30;99.90;;;;;;7297009;32;20620;-57
2023/10/14 00:07:29;;;;;;;12.57;7.57;;;19.20;99.90;;;;;;7297544;32;20282;-56
2023/10/14 00:11:40;;;;;;;19.08;7.45;;;19.10;99.90;;;;;;7293240;32;20135;-57
2023/10/14 00:15:42;;;;;;;16.55;6.97;;;19.00;99.90;;;;;;7296123;32;20480;-56
2023/10/14 00:19:49;;;;;;;13.65;6.93;;;18.90;99.90;;;;;;7296635;32;20190;-58
2023/10/14 00:23:55;;;;;;;;;;;18.90;99.90;;;;;;7303729;32;20140;-57
2023/10/14 00:27:57;;;;;;;12.57;6.93;;;18.90;99.90;;;;;;7301729;32;20021;-56
2023/10/14 00:31:59;;;;;;;12.68;5.70;;;18.90;99.90;;;;;;7305692;32;20550;-56
2023/10/14 00:36:01;;;;;;;14.23;6.62;;;19.00;99.90;;;;;;7300609;32;20129;-56
2023/10/14 00:40:10;;;;;;;14.82;6.50;;;19.00;99.90;;;;;;7299502;32;20178;-58
2023/10/14 00:44:12;;;;;;;13.30;7.50;;;18.90;99.90;;;;;;7301127;32;20140;-57
2023/10/14 00:48:19;;;;;;;14.38;7.45;;;18.40;99.90;;;;;;7303069;32;20259;-57
2023/10/14 00:52:22;;;;;;;17.10;8.50;;;17.80;99.90;;;;;;7305262;32;20149;-56
2023/10/14 00:56:31;;;;;;;13.50;7.68;;;17.40;99.90;;;;;;7301238;32;20229;-57
2023/10/14 01:00:44;;;;;;;12.77;8.20;;;17.10;99.90;;;;;;7300095;32;20183;-56
2023/10/14 01:04:51;;;;;;;11.63;7.30;;;17.00;99.90;;;;;;7295992;32;20571;-56
2023/10/14 01:08:53;;;;;;;16.40;7.32;;;16.90;99.90;;;;;;7301075;32;20113;-57
2023/10/14 01:12:56;;;;;;;14.57;8.02;;;16.90;99.90;;;;;;7302482;32;20221;-57
2023/10/14 01:16:57;;;;;;;15.25;8.05;;;16.80;99.90;;;;;;7303393;32;20396;-56
2023/10/14 01:20:59;;;;;;;14.87;8.98;;;16.90;99.90;;;;;;7305337;32;20130;-57
2023/10/14 01:25:05;;;;;;;21.02;8.38;;;16.90;99.90;;;;;;7303346;32;20112;-56
2023/10/14 01:29:07;;;;;;;17.90;8.77;;;16.90;99.90;;;;;;7297597;32;20596;-57
2023/10/14 01:33:16;;;;;;;14.27;4.22;;;16.90;99.90;;;;;;7299668;32;20202;-57
2023/10/14 01:37:19;;;;;;;5.57;2.58;;;16.50;99.90;;;;;;7300590;32;20194;-56
2023/10/14 01:41:21;;;;;;;9.68;2.85;;;15.80;99.90;;;;;;7299012;32;20270;-56
2023/10/14 01:45:39;;;;;;;7.75;1.65;;;15.50;99.90;;;;;;7303197;32;20494;-56
2023/10/14 01:49:42;;;;;;;3.92;1.40;;;15.00;99.90;;;;;;7302335;32;20845;-56
2023/10/14 01:53:43;;;;;;;2.30;0.70;;;14.70;99.90;;;;;;7296088;32;20108;-56
2023/10/14 01:57:46;;;;;;;2.83;0.60;;;14.40;99.90;;;;;;7301221;32;20202;-56
2023/10/14 02:01:49;;;;;;;1.77;0.30;;;14.30;99.90;;;;;;7301725;32;20108;-56
2023/10/14 02:05:51;;;;;;;1.00;0.30;;;14.20;99.90;;;;;;7297863;32;20193;-56
2023/10/14 02:09:56;;;;;;;1.35;0.20;;;14.00;99.90;;;;;;7304753;32;20858;-56
2023/10/14 02:13:57;;;;;;;2.60;0.30;;;13.90;99.90;;;;;;7290220;32;20206;-56
2023/10/14 02:18:02;;;;;;;0.65;0.28;;;13.90;99.90;;;;;;7299632;32;20537;-56
2023/10/14 02:22:10;;;;;;;1.50;0.40;;;13.90;99.90;;;;;;7297438;32;20227;-56
2023/10/14 02:26:30;;;;;;;3.40;1.12;;;13.80;99.90;;;;;;7299766;32;20213;-55
2023/10/14 02:30:32;;;;;;;6.68;3.45;;;13.80;99.90;;;;;;7299437;32;20219;-55
2023/10/14 02:34:34;;;;;;;7.68;3.33;;;13.80;99.90;;;;;;7297931;32;20249;-55
2023/10/14 02:38:36;;;;;;;9.68;4.50;;;13.70;99.90;;;;;;7303098;32;20111;-55
2023/10/14 02:42:39;;;;;;;7.80;4.60;;;13.70;99.90;;;;;;7298828;32;20104;-56
2023/10/14 02:46:45;;;;;;;6.68;3.50;;;13.70;99.90;;;;;;7299700;32;20135;-55
2023/10/14 02:50:50;;;;;;;6.20;2.83;;;13.70;99.90;;;;;;7300079;32;20501;-55
2023/10/14 02:55:02;;;;;;;3.67;1.87;;;13.70;99.90;;;;;;7297802;32;20264;-55
2023/10/14 02:59:05;;;;;;;2.05;1.20;;;13.70;99.90;;;;;;7295546;32;20238;-57
2023/10/14 03:03:13;;;;;;;2.65;1.30;;;13.60;99.90;;;;;;7300916;32;20120;-56
2023/10/14 03:07:23;;;;;;;4.40;0.80;;;13.60;99.90;;;;;;7299275;32;20171;-55
2023/10/14 03:11:26;;;;;;;3.70;0.93;;;13.70;99.90;;;;;;7292639;32;20815;-55
2023/10/14 03:15:30;;;;;;;3.17;1.08;;;13.70;99.90;;;;;;7293219;32;20115;-55
2023/10/14 03:19:32;;;;;;;3.37;0.95;;;13.70;99.90;;;;;;7300299;32;20124;-56
2023/10/14 03:23:35;;;;;;;6.47;1.33;;;13.70;99.90;;;;;;7292073;32;20149;-56
2023/10/14 03:27:39;;;;;;;9.13;1.50;;;13.20;99.90;;;;;;7295884;32;20210;-55
2023/10/14 03:31:44;;;;;;;4.93;1.05;;;12.90;99.90;;;;;;7300837;32;20654;-56
2023/10/14 03:36:00;;;;;;;4.50;0.75;;;12.80;99.90;;;;;;7293317;32;20108;-55
2023/10/14 03:44:23;;;;;;;5.75;1.37;;;12.50;99.90;;;;;;7296876;32;20119;-55
2023/10/14 03:48:29;;;;;;;6.07;0.85;;;12.30;99.90;;;;;;7296198;32;20237;-56
2023/10/14 03:52:31;;;;;;;9.52;1.30;;;12.10;99.90;;;;;;7294937;32;20290;-56
2023/10/14 03:56:34;;;;;;;8.98;1.48;;;12.00;99.90;;;;;;7296961;32;20107;-55
2023/10/14 04:00:39;;;;;;;6.00;1.25;;;11.90;99.90;;;;;;7298550;32;20973;-54
2023/10/14 04:04:43;;;;;;;8.40;1.20;;;11.90;99.90;;;;;;7294773;32;20699;-55
2023/10/14 04:08:49;;;;;;;9.52;1.30;;;11.90;99.90;;;;;;7299695;32;20131;-56
2023/10/14 04:12:53;;;;;;;7.10;1.33;;;11.90;99.90;;;;;;7296776;32;20149;-57
2023/10/14 04:17:18;;;;;;;8.88;1.52;;;12.00;99.90;;;;;;7296512;32;20136;-55
2023/10/14 04:21:25;;;;;;;8.23;1.67;;;12.00;99.90;;;;;;7298405;32;20112;-56
2023/10/14 04:25:42;;;;;;;10.77;1.90;;;12.00;99.90;;;;;;7298069;32;20787;-55
2023/10/14 04:30:03;;;;;;;8.88;1.87;;;11.90;99.90;;;;;;7298193;32;20134;-56
2023/10/14 04:34:07;;;;;;;9.68;1.95;;;12.00;99.90;;;;;;7295112;32;20336;-55
2023/10/14 04:38:16;;;;;;;11.63;2.03;;;11.90;99.90;;;;;;7291645;32;20485;-56
2023/10/14 04:46:32;;;;;;;10.23;1.80;;;11.90;99.90;;;;;;7297911;32;20169;-56
2023/10/14 04:50:38;;;;;;;8.85;1.70;;;12.00;99.90;;;;;;7296613;32;20147;-57
2023/10/14 04:54:52;;;;;;;10.85;2.30;;;12.00;99.90;;;;;;7297249;32;20139;-56
2023/10/14 04:58:54;;;;;;;9.80;1.40;;;11.90;99.90;;;;;;7298518;32;20131;-57
2023/10/14 05:02:59;;;;;;;9.85;2.83;;;11.90;99.90;;;;;;7291770;32;20211;-56
2023/10/14 05:07:05;;;;;;;7.75;1.40;;;11.80;99.90;;;;;;7288313;32;20142;-55
2023/10/14 05:11:12;;;;;;;9.45;1.87;;;11.70;99.90;;;;;;7302085;32;20136;-56
2023/10/14 05:15:20;;;;;;;10.07;1.52;;;11.60;99.90;;;;;;7301666;32;20211;-57
2023/10/14 05:23:46;;;;;;;11.90;2.00;;;11.40;99.90;;;;;;7297560;32;20187;-55
2023/10/14 05:28:06;;;;;;;14.87;2.37;;;11.30;99.90;;;;;;7298386;32;20139;-55
2023/10/14 05:32:15;;;;;;;16.17;1.52;;;11.30;99.90;;;;;;7294453;32;20226;-56
2023/10/14 05:36:16;;;;;;;7.70;1.65;;;11.30;99.90;;;;;;7300152;32;20115;-56
2023/10/14 05:40:21;;;;;;;7.43;1.30;;;11.30;99.90;;;;;;7299820;32;20219;-55
2023/10/14 05:44:29;;;;;;;10.05;1.23;;;11.20;99.90;;;;;;7300539;32;20130;-55
2023/10/14 05:48:30;;;;;;;12.75;3.15;;;11.10;99.90;;;;;;7301388;32;20182;-56
2023/10/14 05:52:33;;;;;;;9.30;1.35;;;11.10;99.90;;;;;;7294691;32;20177;-58
2023/10/14 05:56:34;;;;;;;8.80;1.40;;;11.10;99.90;;;;;;7291945;32;20203;-56
2023/10/14 06:00:38;;;;;;;8.18;1.37;;;11.10;99.90;;;;;;7297429;32;20230;-56
2023/10/14 06:04:40;;;;;;;9.23;1.67;;;11.10;99.90;;;;;;7302764;32;20124;-56
2023/10/14 06:08:46;;;;;;;12.27;1.48;;;11.10;99.90;;;;;;7302582;32;20230;-55
2023/10/14 06:12:52;;;;;;;20.33;1.65;;;11.20;99.90;;;;;;7300193;32;20238;-55
2023/10/14 06:16:54;;;;;;;12.07;1.87;;;11.00;99.90;;;;;;7296327;32;20149;-57
2023/10/14 06:20:59;;;;;;;8.93;1.60;;;11.00;99.90;;;;;;7296917;32;20108;-55
2023/10/14 06:25:01;;;;;;;9.13;1.62;;;11.00;99.90;;;;;;7298428;32;20638;-55
2023/10/14 06:29:04;;;;;;;12.43;1.60;;;11.00;99.90;;;;;;7299620;32;20120;-56
2023/10/14 06:33:06;;;;;;;7.93;1.40;;;10.90;99.90;;;;;;7304137;32;20218;-58
2023/10/14 06:37:08;;;;;;;13.38;1.62;;;10.90;99.90;;;;;;7294333;32;20466;-58
2023/10/14 06:41:17;;;;;;;13.73;1.70;;;10.90;99.90;;;;;;7299425;32;20238;-57
2023/10/14 06:45:21;;;;;;;8.70;1.42;;;10.90;99.90;;;;;;7299684;32;20111;-56
2023/10/14 06:49:32;;;;;;;9.65;1.73;;;10.90;99.90;;;;;;7293871;32;20130;-56
2023/10/14 06:53:34;;;;;;;13.90;2.05;;;11.00;99.90;;;;;;7297313;32;20131;-56
2023/10/14 06:57:36;;;;;;;8.77;1.62;;;11.00;99.90;;;;;;7294548;32;20260;-57
2023/10/14 07:01:38;;;;;;;13.38;1.83;;;10.90;99.90;;;;;;7298554;32;20533;-57
2023/10/14 07:05:56;;;;;;;10.80;1.75;;;10.90;99.90;;;;;;7293464;32;20131;-56
2023/10/14 07:10:01;;;;;;;12.80;2.67;;;11.00;99.90;;;;;;7299852;32;20131;-56
2023/10/14 07:14:03;;;;;;;10.18;2.15;;;11.00;99.90;;;;;;7292560;32;20203;-54
2023/10/14 07:18:05;;;;;;;9.15;1.65;;;11.00;99.90;;;;;;7292226;32;20170;-57
2023/10/14 07:22:07;;;;;;;12.10;1.90;;;11.00;99.90;;;;;;7293554;32;20219;-56
2023/10/14 07:26:11;;;;;;;10.60;1.80;;;11.00;99.90;;;;;;7299627;32;20909;-57
2023/10/14 07:30:14;;;;;;;16.00;1.65;;;11.00;99.90;;;;;;7297917;32;20202;-58
2023/10/14 07:34:16;;;;;;;10.70;1.65;;;11.00;99.90;;;;;;7294367;32;20883;-57
2023/10/14 07:38:20;;;;;;;12.50;2.10;;;11.00;99.90;;;;;;7293839;32;20111;-55
2023/10/14 07:42:22;;;;;;;14.75;2.20;;;11.10;99.90;;;;;;7297516;32;20504;-57
2023/10/14 07:46:24;;;;;;;10.68;2.12;;;11.10;99.90;;;;;;7296057;32;20206;-57
2023/10/14 07:50:34;;;;;;;15.95;2.03;;;11.20;99.90;;;;;;7296875;32;20108;-58
2023/10/14 07:54:42;;;;;;;6.40;1.20;;;11.40;99.90;;;;;;7299558;32;20191;-57
2023/10/14 07:58:44;;;;;;;11.43;1.90;;;11.30;99.90;;;;;;7296405;32;20104;-56
2023/10/14 08:02:45;;;;;;;12.40;1.87;;;11.20;99.90;;;;;;7295580;32;20111;-58
2023/10/14 08:06:47;;;;;;;13.75;1.33;;;11.20;99.90;;;;;;7299067;32;20103;-57
2023/10/14 08:10:51;;;;;;;8.70;1.75;;;11.20;99.90;;;;;;7299293;32;20138;-61
2023/10/14 08:14:54;;;;;;;11.80;1.90;;;11.20;99.90;;;;;;7296844;32;20866;-63
2023/10/14 08:18:56;;;;;;;7.90;1.90;;;11.40;99.90;;;;;;7292382;32;20150;-56
2023/10/14 08:22:58;;;;;;;10.80;1.62;;;11.40;99.90;;;;;;7292268;32;20116;-57
2023/10/14 08:27:00;;;;;;;10.23;1.87;;;11.50;99.90;;;;;;7297027;32;20141;-55
2023/10/14 08:31:04;;;;;;;14.00;2.37;;;11.50;99.90;;;;;;7292635;32;20196;-56
2023/10/14 08:35:15;;;;;;;12.02;1.70;;;11.60;99.90;;;;;;7294217;32;20217;-56
2023/10/14 08:39:18;;;;;;;10.77;1.98;;;11.70;99.90;;;;;;7293003;32;20107;-57
2023/10/14 08:43:21;;;;;;;10.57;1.55;;;12.10;99.90;;;;;;7297933;32;20238;-56
2023/10/14 08:47:24;;;;;;;18.23;2.05;;;12.30;99.90;;;;;;7297496;32;20119;-57
2023/10/14 08:51:26;;;;;;;10.18;1.77;;;12.60;99.90;;;;;;7299917;32;20112;-56
2023/10/14 08:55:48;;;;;;;13.57;1.60;;;12.50;99.90;;;;;;7302715;32;20124;-57
2023/10/14 08:59:50;;;;;;;10.50;1.67;;;12.70;99.90;;;;;;7297371;32;20115;-57
2023/10/14 09:03:52;;;;;;;9.23;1.67;;;12.60;99.90;;;;;;7303468;32;20123;-57
2023/10/14 09:07:55;;;;;;;11.05;1.15;;;12.70;99.90;;;;;;7295518;32;20628;-58
2023/10/14 09:12:10;;;;;;;10.27;1.58;;;12.80;99.90;;;;;;7293958;32;20879;-56
2023/10/14 09:16:25;;;;;;;13.05;2.35;;;13.00;99.90;;;;;;7298168;32;20198;-59
2023/10/14 09:20:35;;;;;;;12.32;1.70;;;13.50;99.90;;;;;;7296743;32;20235;-59
2023/10/14 09:24:37;;;;;;;12.55;1.70;;;13.50;99.90;;;;;;7297607;32;20313;-58
2023/10/14 09:28:40;;;;;;;8.90;1.52;;;13.90;99.90;;;;;;7294708;32;20100;-58
2023/10/14 09:32:42;;;;;;;7.57;1.80;;;14.50;99.90;;;;;;7296536;32;20131;-59
2023/10/14 09:36:43;;;;;;;10.52;1.67;;;14.80;99.90;;;;;;7297913;32;20718;-58
2023/10/14 09:40:51;;;;;;;9.75;1.30;;;15.00;99.90;;;;;;7298213;32;20616;-56
2023/10/14 09:44:54;;;;;;;9.25;2.37;;;15.40;99.90;;;;;;7292500;32;20257;-57
2023/10/14 09:48:59;;;;;;;14.82;1.87;;;15.50;99.90;;;;;;7291535;32;20225;-57
2023/10/14 09:53:02;;;;;;;10.20;1.52;;;15.10;99.90;;;;;;7297898;32;20109;-57
2023/10/14 09:57:04;;;;;;;10.60;1.60;;;15.00;99.90;;;;;;7291799;32;20195;-57
2023/10/14 10:01:07;;;;;;;10.63;1.65;;;14.70;99.90;;;;;;7299442;32;20230;-56
2023/10/14 10:05:16;;;;;;;8.75;1.40;;;14.40;99.90;;;;;;7301311;32;20265;-55
2023/10/14 10:09:26;;;;;;;11.93;1.65;;;13.90;99.90;;;;;;7298802;32;20342;-56
2023/10/14 10:13:29;;;;;;;7.72;1.90;;;13.50;99.90;;;;;;7300442;32;20211;-56
2023/10/14 10:17:34;;;;;;;10.60;1.40;;;13.20;99.90;;;;;;7295061;32;20574;-57
2023/10/14 10:21:43;;;;;;;10.07;1.52;;;13.10;99.90;;;;;;7300767;32;20475;-57
2023/10/14 10:25:47;;;;;;;8.75;1.50;;;13.20;99.90;;;;;;7298924;32;20358;-59
2023/10/14 10:29:58;;;;;;;11.70;1.58;;;13.50;99.90;;;;;;7294163;32;20213;-57
2023/10/14 10:34:01;;;;;;;8.40;1.37;;;13.50;99.90;;;;;;7299778;32;20805;-57
2023/10/14 10:38:10;;;;;;;9.73;1.83;;;13.60;99.90;;;;;;7297287;32;20174;-58
2023/10/14 10:42:12;;;;;;;11.57;1.70;;;13.60;99.90;;;;;;7300733;32;20100;-57
2023/10/14 10:46:29;;;;;;;9.02;1.75;;;13.80;99.90;;;;;;7300313;32;20613;-57
2023/10/14 10:50:36;;;;;;;9.60;1.37;;;13.90;99.90;;;;;;7303118;32;20195;-57
2023/10/14 10:54:43;;;;;;;9.63;1.65;;;14.00;99.90;;;;;;7299644;32;20207;-57
2023/10/14 10:58:45;;;;;;;11.63;1.58;;;13.90;99.90;;;;;;7303211;32;20167;-57
2023/10/14 11:02:50;;;;;;;11.20;1.77;;;13.60;99.90;;;;;;7294913;32;20104;-57
2023/10/14 11:06:52;;;;;;;10.63;2.00;;;13.60;99.90;;;;;;7300682;32;20180;-56
2023/10/14 11:10:57;;;;;;;10.55;1.42;;;13.70;99.90;;;;;;7295532;32;20223;-57
2023/10/14 11:14:59;;;;;;;14.27;1.62;;;13.80;99.90;;;;;;7303225;32;20651;-57
2023/10/14 11:19:00;;;;;;;10.00;1.40;;;13.90;99.90;;;;;;7303196;32;20138;-57
2023/10/14 11:23:04;;;;;;;7.07;1.27;;;14.00;99.90;;;;;;7298076;32;20153;-53
2023/10/14 11:27:06;;;;;;;8.60;1.45;;;14.20;99.90;;;;;;7290883;32;20215;-56
2023/10/14 11:31:09;;;;;;;6.35;1.25;;;14.40;99.90;;;;;;7298488;32;20217;-57
2023/10/14 11:35:10;;;;;;;11.50;1.75;;;14.40;99.90;;;;;;7299726;32;20305;-56
2023/10/14 11:39:15;;;;;;;9.10;1.10;;;14.60;99.90;;;;;;7298499;32;20234;-57
2023/10/14 11:43:21;;;;;;;6.25;1.12;;;14.70;99.90;;;;;;7296718;32;20293;-56
2023/10/14 11:47:28;;;;;;;9.77;1.12;;;14.60;99.90;;;;;;7289413;32;20172;-57
2023/10/14 11:51:30;;;;;;;8.30;1.42;;;14.70;99.90;;;;;;7294502;32;20561;-57
2023/10/14 11:55:32;;;;;;;7.07;1.67;;;14.60;99.90;;;;;;7295643;32;20123;-57
2023/10/14 11:59:34;;;;;;;9.20;1.67;;;14.80;99.90;;;;;;7297699;32;20211;-57
2023/10/14 12:03:36;;;;;;;7.15;1.25;;;14.80;99.90;;;;;;7293389;32;20166;-57
2023/10/14 12:07:38;;;;;;;7.22;1.62;;;14.80;99.90;;;;;;7297699;32;20233;-57
2023/10/14 12:11:43;;;;;;;10.40;1.40;;;14.80;99.90;;;;;;7293786;32;20233;-57
2023/10/14 12:15:46;;;;;;;7.30;1.40;;;14.60;99.90;;;;;;7293625;32;20165;-58
2023/10/14 12:19:47;;;;;;;6.95;1.33;;;14.70;99.90;;;;;;7302827;32;20232;-57
2023/10/14 12:23:51;;;;;;;8.25;1.35;;;14.80;99.90;;;;;;7305562;32;20257;-56
2023/10/14 12:27:53;;;;;;;8.55;1.30;;;14.90;99.90;;;;;;7306583;32;20135;-57
2023/10/14 12:31:58;;;;;;;7.85;1.08;;;15.00;99.90;;;;;;7306459;32;20167;-57
2023/10/14 12:36:18;;;;;;;8.25;1.60;;;14.70;99.90;;;;;;7303686;32;20116;-56
2023/10/14 12:40:24;;;;;;;8.18;1.20;;;14.80;99.90;;;;;;7304182;32;20107;-56
2023/10/14 12:44:27;;;;;;;8.30;1.27;;;14.90;99.90;;;;;;7305533;32;20230;-57
2023/10/14 12:48:29;;;;;;;7.20;1.17;;;14.70;99.90;;;;;;7303344;32;20191;-56
2023/10/14 12:52:33;;;;;;;10.45;1.62;;;14.70;99.90;;;;;;7305794;32;21502;-57
2023/10/14 12:56:38;;;;;;;7.55;1.45;;;14.70;99.90;;;;;;7300310;32;20135;-56
2023/10/14 13:00:42;;;;;;;8.38;1.33;;;15.00;99.90;;;;;;7305910;32;20970;-57
2023/10/14 13:04:44;;;;;;;5.18;1.10;;;15.00;99.90;;;;;;7305785;32;20211;-58
2023/10/14 13:08:46;;;;;;;3.70;0.88;;;14.70;99.90;;;;;;7300752;32;20127;-57
2023/10/14 13:12:50;;;;;;;11.40;1.70;;;14.50;99.90;;;;;;7307264;32;20119;-58
2023/10/14 13:16:53;;;;;;;6.47;1.20;;;14.30;99.90;;;;;;7301630;32;20538;-58
2023/10/14 13:20:58;;;;;;;7.53;1.40;;;14.20;99.90;;;;;;7304583;32;20278;-59
2023/10/14 13:25:01;;;;;;;8.45;1.87;;;14.40;99.90;;;;;;7304917;32;20158;-59
2023/10/14 13:29:05;;;;;;;8.88;1.15;;;14.50;99.90;;;;;;7300975;32;20115;-57
2023/10/14 13:33:07;;;;;;;7.32;1.30;;;14.60;99.90;;;;;;7300444;32;20226;-58
2023/10/14 13:37:09;;;;;;;7.62;0.80;;;14.40;99.90;;;;;;7299676;32;20155;-58
2023/10/14 13:41:15;;;;;;;8.20;1.40;;;14.70;99.90;;;;;;7293741;32;20209;-56
2023/10/14 13:45:18;;;;;;;7.25;1.30;;;14.70;99.90;;;;;;7298471;32;20119;-58
2023/10/14 13:49:26;;;;;;;8.48;1.37;;;14.60;99.90;;;;;;7302437;32;20130;-59
2023/10/14 13:53:32;;;;;;;5.75;0.90;;;14.50;99.90;;;;;;7300777;32;20135;-57
2023/10/14 13:57:34;;;;;;;6.28;1.00;;;13.90;99.90;;;;;;7300157;32;20703;-59
2023/10/14 14:01:36;;;;;;;4.78;0.70;;;13.70;99.90;;;;;;7299789;32;20176;-58
2023/10/14 14:05:40;;;;;;;4.82;0.93;;;13.60;99.90;;;;;;7299622;32;20113;-57
2023/10/14 14:09:42;;;;;;;6.12;1.10;;;13.60;99.90;;;;;;7296492;32;20240;-58
2023/10/14 14:13:44;;;;;;;3.45;0.85;;;13.60;99.90;;;;;;7300806;32;20120;-58
2023/10/14 14:17:45;;;;;;;5.93;1.00;;;13.70;99.90;;;;;;7293615;32;20205;-58
2023/10/14 14:21:47;;;;;;;5.50;0.95;;;13.70;99.90;;;;;;7297074;32;20115;-57
2023/10/14 14:25:49;;;;;;;4.57;1.00;;;13.80;99.90;;;;;;7298276;32;20598;-56
2023/10/14 14:29:55;;;;;;;8.35;1.60;;;13.90;99.90;;;;;;7304148;32;20503;-60
2023/10/14 14:33:56;;;;;;;10.95;1.25;;;14.00;99.90;;;;;;7302706;32;20195;-59
2023/10/14 14:37:59;;;;;;;3.00;0.70;;;14.00;99.90;;;;;;7297484;32;20169;-58
2023/10/14 14:42:01;;;;;;;6.72;0.90;;;13.80;99.90;;;;;;7301388;32;20572;-59
2023/10/14 14:46:07;;;;;;;3.87;0.65;;;13.50;99.90;;;;;;7305465;32;20531;-59
2023/10/14 14:50:13;;;;;;;2.67;0.53;;;13.60;99.90;;;;;;7301985;32;20180;-58
2023/10/14 14:54:17;;;;;;;4.32;0.68;;;13.60;99.90;;;;;;7298370;32;20138;-59
2023/10/14 14:58:19;;;;;;;6.22;0.90;;;13.60;99.90;;;;;;7301958;32;20218;-58
2023/10/14 15:02:21;;;;;;;5.93;1.17;;;13.50;99.90;;;;;;7300655;32;20158;-57
2023/10/14 15:06:23;;;;;;;4.93;0.75;;;13.50;99.90;;;;;;7300779;32;20140;-58
2023/10/14 15:10:25;;;;;;;7.85;1.30;;;13.40;99.90;;;;;;7300110;32;20522;-56
2023/10/14 15:14:27;;;;;;;4.95;0.75;;;13.20;99.90;;;;;;7300280;32;20125;-55
2023/10/14 15:18:28;;;;;;;2.40;0.30;;;13.00;99.90;;;;;;7295191;32;20113;-55
2023/10/14 15:22:31;;;;;;;2.05;0.50;;;12.90;99.90;;;;;;7295825;32;20221;-58
2023/10/14 15:26:33;;;;;;;1.55;0.40;;;12.60;99.90;;;;;;7298257;32;20147;-58
2023/10/14 15:30:36;;;;;;;5.85;0.82;;;12.40;99.90;;;;;;7298269;32;20404;-59
2023/10/14 15:34:37;;;;;;;2.53;0.57;;;12.30;99.90;;;;;;7299216;32;20134;-58
2023/10/14 15:38:40;;;;;;;3.55;0.60;;;12.40;99.90;;;;;;7294651;32;20237;-58
2023/10/14 15:42:44;;;;;;;2.67;0.60;;;12.50;99.90;;;;;;7299974;32;20605;-58
2023/10/14 15:46:47;;;;;;;3.12;0.60;;;12.50;99.90;;;;;;7296755;32;20319;-58
2023/10/14 15:50:49;;;;;;;4.05;0.68;;;12.40;99.90;;;;;;7295270;32;20116;-57
2023/10/14 15:54:51;;;;;;;5.47;0.80;;;12.40;99.90;;;;;;7298636;32;20230;-59
2023/10/14 15:58:52;;;;;;;6.10;0.90;;;12.20;99.90;;;;;;7299770;32;20107;-60
2023/10/14 16:02:56;;;;;;;3.72;0.93;;;12.10;99.90;;;;;;7296177;32;20119;-59
2023/10/14 16:06:58;;;;;;;3.78;0.85;;;12.10;99.90;;;;;;7297679;32;20233;-59
2023/10/14 16:11:00;;;;;;;4.85;0.88;;;12.20;99.90;;;;;;7298156;32;20524;-58
2023/10/14 16:15:03;;;;;;;3.35;0.90;;;12.20;99.90;;;;;;7298248;32;20179;-59
2023/10/14 16:19:06;;;;;;;4.70;0.80;;;12.30;99.90;;;;;;7298761;32;20435;-58
2023/10/14 16:23:11;;;;;;;3.97;0.62;;;12.30;99.90;;;;;;7294046;32;20175;-58
2023/10/14 16:27:13;;;;;;;8.25;1.30;;;12.30;99.90;;;;;;7298104;32;20107;-59
2023/10/14 16:31:16;;;;;;;8.68;0.90;;;12.10;99.90;;;;;;7300512;32;20131;-60
2023/10/14 16:35:20;;;;;;;7.72;0.98;;;12.00;99.90;;;;;;7298220;32;20574;-58
2023/10/14 16:39:22;;;;;;;5.37;1.10;;;11.90;99.90;;;;;;7294530;32;20116;-59
2023/10/14 16:43:25;;;;;;;4.85;1.30;;;11.70;99.90;;;;;;7293648;32;20185;-58
2023/10/14 16:47:27;;;;;;;4.95;1.00;;;11.70;99.90;;;;;;7291716;32;20112;-59
2023/10/14 16:51:29;;;;;;;4.68;0.75;;;11.60;99.90;;;;;;7296794;32;20123;-57
2023/10/14 16:55:33;;;;;;;4.55;1.00;;;11.50;99.90;;;;;;7294362;32;20225;-57
2023/10/14 16:59:35;;;;;;;8.70;1.00;;;11.40;99.90;;;;;;7292482;32;20124;-58
2023/10/14 17:03:38;;;;;;;5.05;0.82;;;11.40;99.90;;;;;;7290433;32;20499;-57
2023/10/14 17:07:41;;;;;;;5.07;0.55;;;11.40;99.90;;;;;;7300436;32;20541;-58
2023/10/14 17:11:46;;;;;;;4.43;0.80;;;11.40;99.90;;;;;;7305660;32;20169;-56
2023/10/14 17:15:48;;;;;;;12.18;4.40;;;11.40;99.90;;;;;;7303222;32;20175;-56
2023/10/14 17:19:52;;;;;;;8.02;2.40;;;11.50;99.90;;;;;;7297204;32;20116;-56
2023/10/14 17:23:54;;;;;;;5.55;3.00;;;11.40;99.90;;;;;;7305298;32;20150;-56
2023/10/14 17:27:57;;;;;;;8.63;3.80;;;11.40;99.90;;;;;;7301867;32;20138;-57
2023/10/14 17:31:59;;;;;;;18.52;11.70;;;11.20;99.90;;;;;;7294368;32;20108;-56
2023/10/14 17:36:07;;;;;;;9.63;3.45;;;11.20;99.90;;;;;;7301618;32;20220;-56
2023/10/14 17:40:17;;;;;;;7.12;2.15;;;11.00;99.90;;;;;;7302762;32;20107;-57
2023/10/14 17:44:19;;;;;;;5.75;1.55;;;11.10;99.90;;;;;;7298179;32;20180;-57
2023/10/14 17:48:21;;;;;;;6.80;1.67;;;11.00;99.90;;;;;;7297402;32;20550;-57
2023/10/14 17:52:23;;;;;;;6.90;1.62;;;10.90;99.90;;;;;;7297502;32;20647;-58
2023/10/14 17:56:25;;;;;;;6.97;1.90;;;10.90;99.90;;;;;;7302320;32;20130;-59
2023/10/14 18:00:27;;;;;;;4.65;1.42;;;10.70;99.90;;;;;;7299906;32;20108;-59
2023/10/14 18:04:29;;;;;;;7.05;2.53;;;10.60;99.90;;;;;;7302787;32;20211;-57
2023/10/14 18:08:30;;;;;;;9.25;2.90;;;10.60;99.90;;;;;;7302963;32;20358;-57
2023/10/14 18:12:38;;;;;;;5.82;1.85;;;10.60;99.90;;;;;;7301832;32;20111;-56
2023/10/14 18:16:42;;;;;;;4.32;1.15;;;10.60;99.90;;;;;;7298904;32;20132;-57
2023/10/14 18:21:16;;;;;;;4.45;1.10;;;10.70;99.90;;;;;;7302491;32;20103;-57
2023/10/14 18:25:21;;;;;;;3.35;1.08;;;10.70;99.90;;;;;;7298694;32;20156;-56
2023/10/14 18:29:22;;;;;;;8.68;1.83;;;10.50;99.90;;;;;;7299556;32;20107;-59
2023/10/14 18:33:24;;;;;;;5.95;1.62;;;10.40;99.90;;;;;;7300768;32;20573;-61
2023/10/14 18:37:26;;;;;;;5.95;2.10;;;10.40;99.90;;;;;;7298462;32;20196;-57
2023/10/14 18:41:29;;;;;;;8.40;2.10;;;10.30;99.90;;;;;;7296359;32;20111;-57
2023/10/14 18:45:34;;;;;;;7.03;2.30;;;10.20;99.90;;;;;;7302619;32;20187;-57
2023/10/14 18:49:36;;;;;;;9.68;3.30;;;10.20;99.90;;;;;;7299208;32;20544;-57
2023/10/14 18:53:41;;;;;;;8.07;2.70;;;10.10;99.90;;;;;;7294220;32;20126;-55
2023/10/14 18:57:47;;;;;;;6.45;1.55;;;10.10;99.90;;;;;;7299376;32;20210;-55
2023/10/14 19:01:51;;;;;;;8.07;2.60;;;10.10;99.90;;;;;;7301415;32;20257;-56
2023/10/14 19:05:53;;;;;;;10.02;1.90;;;10.10;99.90;;;;;;7301266;32;20143;-55
2023/10/14 19:09:56;;;;;;;10.65;1.85;;;9.90;99.90;;;;;;7300920;32;20330;-59
2023/10/14 19:14:00;;;;;;;9.20;2.17;;;9.80;99.90;;;;;;7299659;32;20179;-58
2023/10/14 19:18:03;;;;;;;11.95;4.70;;;9.70;99.90;;;;;;7299311;32;20111;-58
2023/10/14 19:22:05;;;;;;;7.87;3.35;;;9.50;99.90;;;;;;7297626;32;20138;-58
2023/10/14 19:26:09;;;;;;;12.80;3.37;;;9.40;99.90;;;;;;7299644;32;20104;-57
2023/10/14 19:30:13;;;;;;;19.35;9.05;;;9.40;99.90;;;;;;7298539;32;20225;-57
2023/10/14 19:34:15;;;;;;;11.30;4.10;;;9.40;99.90;;;;;;7308391;32;20107;-57
2023/10/14 19:38:18;;;;;;;7.05;3.08;;;9.20;99.90;;;;;;7299105;32;20146;-56
2023/10/14 19:42:19;;;;;;;10.23;7.22;;;9.20;99.90;;;;;;7297811;32;20213;-57
2023/10/14 19:46:23;;;;;;;10.25;4.47;;;9.00;99.90;;;;;;7292700;32;20271;-56
2023/10/14 19:50:32;;;;;;;6.68;2.17;;;8.90;99.90;;;;;;7300470;32;20112;-58
2023/10/14 19:54:36;;;;;;;11.98;3.15;;;8.80;99.90;;;;;;7299961;32;20260;-58
2023/10/14 19:58:38;;;;;;;10.68;3.50;;;8.70;99.90;;;;;;7295339;32;20127;-56
2023/10/14 20:02:40;;;;;;;8.75;4.45;;;8.60;99.90;;;;;;7301352;32;20538;-57
2023/10/14 20:06:42;;;;;;;6.53;2.58;;;8.50;99.90;;;;;;7300771;32;20183;-57
2023/10/14 20:10:44;;;;;;;5.93;1.80;;;8.50;99.90;;;;;;7297438;32;20510;-56
2023/10/14 20:14:46;;;;;;;3.72;1.83;;;8.30;99.90;;;;;;7298270;32;20214;-56
2023/10/14 20:18:48;;;;;;;5.65;1.40;;;8.20;99.90;;;;;;7299668;32;20112;-57
2023/10/14 20:22:52;;;;;;;4.35;1.48;;;8.10;99.90;;;;;;7298539;32;20191;-59
2023/10/14 20:26:53;;;;;;;9.48;2.95;;;8.00;99.90;;;;;;7296624;32;20165;-57
2023/10/14 20:30:59;;;;;;;8.93;5.37;;;8.00;99.90;;;;;;7297738;32;20301;-56
2023/10/14 20:35:00;;;;;;;5.80;2.60;;;8.00;99.90;;;;;;7296461;32;20223;-57
2023/10/14 20:39:04;;;;;;;6.07;2.35;;;7.80;99.90;;;;;;7295148;32;20124;-56
2023/10/14 20:43:10;;;;;;;7.87;1.98;;;7.80;99.90;;;;;;7296462;32;20213;-56
2023/10/14 20:47:11;;;;;;;9.95;1.98;;;7.70;99.90;;;;;;7294670;32;20137;-56
2023/10/14 20:51:13;;;;;;;6.97;1.80;;;7.70;99.90;;;;;;7304335;32;20135;-57
2023/10/14 20:55:17;;;;;;;7.05;1.85;;;7.60;99.90;;;;;;7302843;32;20450;-56
2023/10/14 20:59:19;;;;;;;5.00;1.40;;;7.50;99.90;;;;;;7299834;32;20135;-56
2023/10/14 21:03:21;;;;;;;9.13;2.00;;;7.50;99.90;;;;;;7302874;32;20119;-57
2023/10/14 21:07:23;;;;;;;11.18;1.58;;;7.40;99.90;;;;;;7301327;32;20459;-56
2023/10/14 21:11:25;;;;;;;6.43;1.45;;;7.50;99.90;;;;;;7303401;32;20257;-57
2023/10/14 21:15:27;;;;;;;3.85;1.60;;;7.40;99.90;;;;;;7301000;32;20279;-58
2023/10/14 21:19:29;;;;;;;3.55;1.40;;;7.30;99.90;;;;;;7296579;32;20112;-57
2023/10/14 21:23:31;;;;;;;7.05;1.35;;;7.20;99.90;;;;;;7298192;32;20138;-58